e-Mail: Password: Lost your password? Click here. - Register a new user

c h a v e z j u a r e z . c o m

Weather - Tiempo - Wetter - Temps

METAR DATA MMMX (Mexico City)

Mexico City / Licenci, Mexico (MMMX) 19-26N 099-06W
Jun 24, 2018 - 04:47 AM EDT / 2018.06.24 0847 UTC
Wind: from the ESE (120 degrees) at 6 MPH (5 KT):0
Visibility: 15 mile(s):0
Sky conditions: mostly cloudy
Temperature: 57 F (14 C)
Dew Point: 50 F (10 C)
Relative Humidity: 76%
Pressure (altimeter): 30.29 in. Hg (1025 hPa)
Pressure tendency: 0.01 inches (0.5 hPa) lower than three hours ago
ob: MMMX 240847Z 12005KT 15SM FEW020 BKN080 BKN200 14/10 A3029 NOSIG RMK SLP077 57005 953 8/532 HZY
cycle: 9

Mexico City

St. Prex




Current weather alarms for Switzerland


www.wetteralarm.ch